sensor_id;sensor_type;location;lat;lon;timestamp;pressure;altitude;pressure_sealevel;temperature;humidity
57574;BME280;68988;49.000;21.242;2023-04-08T00:01:27;98773.16;;;23.76;31.13
57574;BME280;68988;49.000;21.242;2023-04-08T00:03:53;98784.66;;;23.76;31.06
57574;BME280;68988;49.000;21.242;2023-04-08T00:06:18;98772.59;;;23.74;31.13
57574;BME280;68988;49.000;21.242;2023-04-08T00:08:43;98772.84;;;23.72;31.22
57574;BME280;68988;49.000;21.242;2023-04-08T00:11:09;98776.63;;;23.71;31.21
57574;BME280;68988;49.000;21.242;2023-04-08T00:13:35;98779.81;;;23.73;31.19
57574;BME280;68988;49.000;21.242;2023-04-08T00:16:00;98776.63;;;23.71;31.14
57574;BME280;68988;49.000;21.242;2023-04-08T00:18:26;98779.81;;;23.73;31.13
57574;BME280;68988;49.000;21.242;2023-04-08T00:20:51;98772.84;;;23.72;31.09
57574;BME280;68988;49.000;21.242;2023-04-08T00:23:17;98783.28;;;23.74;31.13
57574;BME280;68988;49.000;21.242;2023-04-08T00:25:44;98779.03;;;23.73;31.14
57574;BME280;68988;49.000;21.242;2023-04-08T00:28:09;98774.47;;;23.73;31.14
57574;BME280;68988;49.000;21.242;2023-04-08T00:30:35;98773.38;;;23.69;31.05
57574;BME280;68988;49.000;21.242;2023-04-08T00:33:00;98771.78;;;23.73;31.04
57574;BME280;68988;49.000;21.242;2023-04-08T00:35:26;98776.63;;;23.71;31.15
57574;BME280;68988;49.000;21.242;2023-04-08T00:37:51;98779.03;;;23.73;31.03
57574;BME280;68988;49.000;21.242;2023-04-08T00:40:16;98771.25;;;23.71;31.12
57574;BME280;68988;49.000;21.242;2023-04-08T00:42:42;98771.78;;;23.73;31.01
57574;BME280;68988;49.000;21.242;2023-04-08T00:45:08;98775.00;;;23.70;31.14
57574;BME280;68988;49.000;21.242;2023-04-08T00:47:35;98775.00;;;23.70;31.05
57574;BME280;68988;49.000;21.242;2023-04-08T00:50:00;98768.84;;;23.70;31.27
57574;BME280;68988;49.000;21.242;2023-04-08T00:52:26;98773.09;;;23.71;30.97
57574;BME280;68988;49.000;21.242;2023-04-08T00:54:51;98779.28;;;23.71;31.08
57574;BME280;68988;49.000;21.242;2023-04-08T00:57:17;98778.72;;;23.69;31.09
57574;BME280;68988;49.000;21.242;2023-04-08T00:59:42;98776.63;;;23.71;31.10
57574;BME280;68988;49.000;21.242;2023-04-08T01:05:06;98772.31;;;23.75;31.07
57574;BME280;68988;49.000;21.242;2023-04-08T01:07:36;98780.34;;;23.70;31.20
57574;BME280;68988;49.000;21.242;2023-04-08T01:10:11;98779.81;;;23.73;31.07
57574;BME280;68988;49.000;21.242;2023-04-08T01:12:43;98779.03;;;23.73;31.03
57574;BME280;68988;49.000;21.242;2023-04-08T01:15:12;98779.81;;;23.68;31.10
57574;BME280;68988;49.000;21.242;2023-04-08T01:17:38;98772.56;;;23.69;31.09
57574;BME280;68988;49.000;21.242;2023-04-08T01:20:06;98780.34;;;23.70;31.04
57574;BME280;68988;49.000;21.242;2023-04-08T01:25:23;98775.50;;;23.67;31.21
57574;BME280;68988;49.000;21.242;2023-04-08T01:27:51;98783.53;;;23.67;31.09
57574;BME280;68988;49.000;21.242;2023-04-08T01:30:21;98786.22;;;23.67;31.21
57574;BME280;68988;49.000;21.242;2023-04-08T01:32:48;98781.66;;;23.68;31.25
57574;BME280;68988;49.000;21.242;2023-04-08T01:35:17;98778.44;;;23.66;31.17
57574;BME280;68988;49.000;21.242;2023-04-08T01:37:43;98780.34;;;23.65;31.24
57574;BME280;68988;49.000;21.242;2023-04-08T01:40:10;98779.50;;;23.65;31.05
57574;BME280;68988;49.000;21.242;2023-04-08T01:42:36;98778.72;;;23.64;31.05
57574;BME280;68988;49.000;21.242;2023-04-08T01:45:02;98778.72;;;23.64;31.27
57574;BME280;68988;49.000;21.242;2023-04-08T01:47:28;98781.38;;;23.64;31.10
57574;BME280;68988;49.000;21.242;2023-04-08T01:49:55;98778.44;;;23.66;31.06
57574;BME280;68988;49.000;21.242;2023-04-08T01:52:22;98780.06;;;23.67;31.04
57574;BME280;68988;49.000;21.242;2023-04-08T01:54:47;98783.00;;;23.65;31.20
57574;BME280;68988;49.000;21.242;2023-04-08T01:57:18;98794.25;;;23.67;31.07
57574;BME280;68988;49.000;21.242;2023-04-08T01:59:50;98794.50;;;23.66;31.18
57574;BME280;68988;49.000;21.242;2023-04-08T02:02:17;98802.28;;;23.67;31.19
57574;BME280;68988;49.000;21.242;2023-04-08T02:04:44;98802.56;;;23.66;31.03
57574;BME280;68988;49.000;21.242;2023-04-08T02:07:10;98805.22;;;23.66;31.08
57574;BME280;68988;49.000;21.242;2023-04-08T02:09:36;98814.06;;;23.66;31.18
57574;BME280;68988;49.000;21.242;2023-04-08T02:12:01;98803.91;;;23.68;30.99
57574;BME280;68988;49.000;21.242;2023-04-08T02:14:27;98802.81;;;23.64;31.23
57574;BME280;68988;49.000;21.242;2023-04-08T02:16:56;98799.88;;;23.66;31.13
57574;BME280;68988;49.000;21.242;2023-04-08T02:19:33;98802.81;;;23.69;31.11
57574;BME280;68988;49.000;21.242;2023-04-08T02:22:11;98806.31;;;23.70;31.06
57574;BME280;68988;49.000;21.242;2023-04-08T02:24:41;98804.44;;;23.65;31.25
57574;BME280;68988;49.000;21.242;2023-04-08T02:27:09;98811.09;;;23.63;31.02
57574;BME280;68988;49.000;21.242;2023-04-08T02:29:35;98809.47;;;23.62;31.24
57574;BME280;68988;49.000;21.242;2023-04-08T02:32:03;98804.94;;;23.62;31.07
57574;BME280;68988;49.000;21.242;2023-04-08T02:34:30;98809.22;;;23.58;31.02
57574;BME280;68988;49.000;21.242;2023-04-08T02:36:56;98815.09;;;23.60;31.10
57574;BME280;68988;49.000;21.242;2023-04-08T02:39:29;98819.41;;;23.66;31.11
57574;BME280;68988;49.000;21.242;2023-04-08T02:41:55;98818.34;;;23.62;31.15
57574;BME280;68988;49.000;21.242;2023-04-08T02:44:20;98810.81;;;23.59;31.03
57574;BME280;68988;49.000;21.242;2023-04-08T02:46:46;98816.72;;;23.61;31.15
57574;BME280;68988;49.000;21.242;2023-04-08T02:49:11;98816.97;;;23.59;31.20
57574;BME280;68988;49.000;21.242;2023-04-08T02:51:36;98823.69;;;23.62;31.18
57574;BME280;68988;49.000;21.242;2023-04-08T02:54:02;98826.38;;;23.62;31.00
57574;BME280;68988;49.000;21.242;2023-04-08T02:56:27;98828.22;;;23.62;31.05
57574;BME280;68988;49.000;21.242;2023-04-08T02:58:53;98828.47;;;23.60;31.03
57574;BME280;68988;49.000;21.242;2023-04-08T03:01:19;98823.66;;;23.57;31.19
57574;BME280;68988;49.000;21.242;2023-04-08T03:03:44;98830.09;;;23.61;31.11
57574;BME280;68988;49.000;21.242;2023-04-08T03:06:10;98830.09;;;23.61;31.03
57574;BME280;68988;49.000;21.242;2023-04-08T03:08:35;98830.09;;;23.61;31.06
57574;BME280;68988;49.000;21.242;2023-04-08T03:11:01;98830.09;;;23.61;31.18
57574;BME280;68988;49.000;21.242;2023-04-08T03:13:26;98830.09;;;23.61;30.88
57574;BME280;68988;49.000;21.242;2023-04-08T03:15:54;98839.19;;;23.60;30.87
57574;BME280;68988;49.000;21.242;2023-04-08T03:18:19;98840.00;;;23.60;31.24
57574;BME280;68988;49.000;21.242;2023-04-08T03:20:45;98836.50;;;23.60;31.24
57574;BME280;68988;49.000;21.242;2023-04-08T03:23:11;98830.34;;;23.59;30.91
57574;BME280;68988;49.000;21.242;2023-04-08T03:25:36;98842.44;;;23.62;31.09
57574;BME280;68988;49.000;21.242;2023-04-08T03:28:01;98840.00;;;23.60;31.15
57574;BME280;68988;49.000;21.242;2023-04-08T03:30:27;98842.69;;;23.60;31.11
57574;BME280;68988;49.000;21.242;2023-04-08T03:32:52;98833.03;;;23.54;31.11
57574;BME280;68988;49.000;21.242;2023-04-08T03:35:18;98834.91;;;23.59;31.08
57574;BME280;68988;49.000;21.242;2023-04-08T03:37:43;98829.56;;;23.59;31.10
57574;BME280;68988;49.000;21.242;2023-04-08T03:40:09;98839.19;;;23.60;31.01
57574;BME280;68988;49.000;21.242;2023-04-08T03:42:35;98840.28;;;23.59;30.89
57574;BME280;68988;49.000;21.242;2023-04-08T03:45:00;98835.19;;;23.57;31.02
57574;BME280;68988;49.000;21.242;2023-04-08T03:47:26;98839.72;;;23.57;31.19
57574;BME280;68988;49.000;21.242;2023-04-08T03:49:52;98837.03;;;23.57;31.14
57574;BME280;68988;49.000;21.242;2023-04-08T03:52:18;98844.53;;;23.60;31.16
57574;BME280;68988;49.000;21.242;2023-04-08T03:54:44;98845.38;;;23.60;30.95
57574;BME280;68988;49.000;21.242;2023-04-08T03:57:09;98840.28;;;23.59;31.04
57574;BME280;68988;49.000;21.242;2023-04-08T03:59:36;98850.72;;;23.60;31.01
57574;BME280;68988;49.000;21.242;2023-04-08T04:02:03;98855.25;;;23.60;31.09
57574;BME280;68988;49.000;21.242;2023-04-08T04:04:29;98860.59;;;23.60;31.22
57574;BME280;68988;49.000;21.242;2023-04-08T04:06:54;98854.44;;;23.59;31.03
57574;BME280;68988;49.000;21.242;2023-04-08T04:09:20;98865.16;;;23.59;30.99
57574;BME280;68988;49.000;21.242;2023-04-08T04:11:45;98865.16;;;23.59;30.95
57574;BME280;68988;49.000;21.242;2023-04-08T04:14:11;98868.09;;;23.58;31.06
57574;BME280;68988;49.000;21.242;2023-04-08T04:16:36;98871.31;;;23.60;30.91
57574;BME280;68988;49.000;21.242;2023-04-08T04:19:02;98872.41;;;23.59;31.07
57574;BME280;68988;49.000;21.242;2023-04-08T04:21:27;98874.81;;;23.60;30.97
57574;BME280;68988;49.000;21.242;2023-04-08T04:23:53;98863.53;;;23.58;30.99
57574;BME280;68988;49.000;21.242;2023-04-08T04:26:18;98872.66;;;23.57;31.39
57574;BME280;68988;49.000;21.242;2023-04-08T04:28:43;98871.31;;;23.60;31.07
57574;BME280;68988;49.000;21.242;2023-04-08T04:31:23;98879.91;;;23.62;31.12
57574;BME280;68988;49.000;21.242;2023-04-08T04:33:53;98880.44;;;23.59;30.96
57574;BME280;68988;49.000;21.242;2023-04-08T04:36:19;98883.63;;;23.56;31.09
57574;BME280;68988;49.000;21.242;2023-04-08T04:38:44;98882.53;;;23.57;31.07
57574;BME280;68988;49.000;21.242;2023-04-08T04:41:10;98893.25;;;23.57;31.02
57574;BME280;68988;49.000;21.242;2023-04-08T04:43:35;98899.69;;;23.56;31.07
57574;BME280;68988;49.000;21.242;2023-04-08T04:46:01;98900.47;;;23.56;31.13
57574;BME280;68988;49.000;21.242;2023-04-08T04:48:28;98902.34;;;23.56;31.10
57574;BME280;68988;49.000;21.242;2023-04-08T04:50:54;98899.94;;;23.54;31.15
57574;BME280;68988;49.000;21.242;2023-04-08T04:53:20;98899.94;;;23.54;31.18
57574;BME280;68988;49.000;21.242;2023-04-08T04:55:46;98897.00;;;23.56;31.15
57574;BME280;68988;49.000;21.242;2023-04-08T04:58:11;98897.00;;;23.56;31.09
57574;BME280;68988;49.000;21.242;2023-04-08T05:00:36;98899.94;;;23.54;31.10
57574;BME280;68988;49.000;21.242;2023-04-08T05:03:02;98894.84;;;23.53;31.20
57574;BME280;68988;49.000;21.242;2023-04-08T05:05:27;98897.25;;;23.54;30.90
57574;BME280;68988;49.000;21.242;2023-04-08T05:07:52;98900.47;;;23.56;31.11
57574;BME280;68988;49.000;21.242;2023-04-08T05:10:18;98903.16;;;23.56;31.13
57574;BME280;68988;49.000;21.242;2023-04-08T05:12:43;98902.09;;;23.57;31.13
57574;BME280;68988;49.000;21.242;2023-04-08T05:15:09;98911.19;;;23.56;31.06
57574;BME280;68988;49.000;21.242;2023-04-08T05:17:35;98916.00;;;23.54;31.05
57574;BME280;68988;49.000;21.242;2023-04-08T05:20:00;98906.09;;;23.55;31.07
57574;BME280;68988;49.000;21.242;2023-04-08T05:22:26;98909.31;;;23.57;31.14
57574;BME280;68988;49.000;21.242;2023-04-08T05:24:51;98915.16;;;23.54;31.15
57574;BME280;68988;49.000;21.242;2023-04-08T05:27:17;98913.00;;;23.51;31.17
57574;BME280;68988;49.000;21.242;2023-04-08T05:29:42;98922.16;;;23.55;31.04
57574;BME280;68988;49.000;21.242;2023-04-08T05:32:07;98915.75;;;23.56;30.95
57574;BME280;68988;49.000;21.242;2023-04-08T05:34:33;98915.16;;;23.54;31.20
57574;BME280;68988;49.000;21.242;2023-04-08T05:36:58;98918.41;;;23.56;31.07
57574;BME280;68988;49.000;21.242;2023-04-08T05:39:23;98917.84;;;23.54;31.08
57574;BME280;68988;49.000;21.242;2023-04-08T05:41:49;98915.16;;;23.54;31.09
57574;BME280;68988;49.000;21.242;2023-04-08T05:44:15;98916.78;;;23.55;31.22
57574;BME280;68988;49.000;21.242;2023-04-08T05:46:40;98922.94;;;23.55;31.02
57574;BME280;68988;49.000;21.242;2023-04-08T05:49:05;98916.78;;;23.55;31.17
57574;BME280;68988;49.000;21.242;2023-04-08T05:51:31;98921.34;;;23.54;31.08
57574;BME280;68988;49.000;21.242;2023-04-08T05:53:56;98917.84;;;23.54;30.96
57574;BME280;68988;49.000;21.242;2023-04-08T05:56:21;98912.50;;;23.54;31.15
57574;BME280;68988;49.000;21.242;2023-04-08T05:58:47;98912.25;;;23.55;31.17
57574;BME280;68988;49.000;21.242;2023-04-08T06:01:12;98909.31;;;23.57;31.07
57574;BME280;68988;49.000;21.242;2023-04-08T06:03:38;98914.13;;;23.55;31.05
57574;BME280;68988;49.000;21.242;2023-04-08T06:06:08;98923.50;;;23.57;31.03
57574;BME280;68988;49.000;21.242;2023-04-08T06:08:33;98917.06;;;23.53;30.95
57574;BME280;68988;49.000;21.242;2023-04-08T06:10:59;98918.94;;;23.53;31.22
57574;BME280;68988;49.000;21.242;2023-04-08T06:13:25;98925.63;;;23.55;31.01
57574;BME280;68988;49.000;21.242;2023-04-08T06:15:50;98926.97;;;23.58;30.91
57574;BME280;68988;49.000;21.242;2023-04-08T06:18:16;98922.94;;;23.55;31.11
57574;BME280;68988;49.000;21.242;2023-04-08T06:20:41;98917.56;;;23.50;31.17
57574;BME280;68988;49.000;21.242;2023-04-08T06:23:06;98926.44;;;23.56;31.13
57574;BME280;68988;49.000;21.242;2023-04-08T06:25:32;98936.06;;;23.57;31.01
57574;BME280;68988;49.000;21.242;2023-04-08T06:27:57;98933.97;;;23.59;31.00
57574;BME280;68988;49.000;21.242;2023-04-08T06:30:23;98930.72;;;23.57;31.00
57574;BME280;68988;49.000;21.242;2023-04-08T06:32:48;98933.91;;;23.54;31.17
57574;BME280;68988;49.000;21.242;2023-04-08T06:35:13;98939.81;;;23.56;31.21
57574;BME280;68988;49.000;21.242;2023-04-08T06:37:39;98940.38;;;23.58;30.97
57574;BME280;68988;49.000;21.242;2023-04-08T06:40:05;98941.69;;;23.55;31.14
57574;BME280;68988;49.000;21.242;2023-04-08T06:42:31;98942.50;;;23.56;31.24
57574;BME280;68988;49.000;21.242;2023-04-08T06:44:56;98941.69;;;23.55;30.97
57574;BME280;68988;49.000;21.242;2023-04-08T06:47:22;98945.19;;;23.56;31.09
57574;BME280;68988;49.000;21.242;2023-04-08T06:49:48;98949.44;;;23.57;31.07
57574;BME280;68988;49.000;21.242;2023-04-08T06:52:13;98955.63;;;23.57;31.07
57574;BME280;68988;49.000;21.242;2023-04-08T06:54:38;98955.88;;;23.56;30.88
57574;BME280;68988;49.000;21.242;2023-04-08T06:57:04;98962.84;;;23.57;31.11
57574;BME280;68988;49.000;21.242;2023-04-08T06:59:29;98959.63;;;23.55;31.05
57574;BME280;68988;49.000;21.242;2023-04-08T07:01:55;98954.81;;;23.57;31.02
57574;BME280;68988;49.000;21.242;2023-04-08T07:04:20;98959.09;;;23.58;30.96
57574;BME280;68988;49.000;21.242;2023-04-08T07:06:45;98953.75;;;23.58;30.92
57574;BME280;68988;49.000;21.242;2023-04-08T07:09:11;98953.75;;;23.58;31.04
57574;BME280;68988;49.000;21.242;2023-04-08T07:11:36;98953.75;;;23.58;31.20
57574;BME280;68988;49.000;21.242;2023-04-08T07:14:02;98962.84;;;23.57;31.16
57574;BME280;68988;49.000;21.242;2023-04-08T07:16:27;98965.50;;;23.57;31.14
57574;BME280;68988;49.000;21.242;2023-04-08T07:18:52;98964.47;;;23.58;30.74
57574;BME280;68988;49.000;21.242;2023-04-08T07:21:18;98961.75;;;23.53;31.05
57574;BME280;68988;49.000;21.242;2023-04-08T07:23:43;98966.09;;;23.59;30.93
57574;BME280;68988;49.000;21.242;2023-04-08T07:26:09;98962.31;;;23.60;31.02
57574;BME280;68988;49.000;21.242;2023-04-08T07:28:34;98966.09;;;23.59;30.89
57574;BME280;68988;49.000;21.242;2023-04-08T07:33:34;98974.66;;;23.61;31.07
57574;BME280;68988;49.000;21.242;2023-04-08T07:35:59;98976.28;;;23.62;31.09
57574;BME280;68988;49.000;21.242;2023-04-08T07:38:25;98983.22;;;23.63;30.94
57574;BME280;68988;49.000;21.242;2023-04-08T07:40:50;98978.97;;;23.62;30.94
57574;BME280;68988;49.000;21.242;2023-04-08T07:43:15;98973.03;;;23.60;31.08
57574;BME280;68988;49.000;21.242;2023-04-08T07:45:41;98977.88;;;23.63;31.09
57574;BME280;68988;49.000;21.242;2023-04-08T07:48:06;98981.06;;;23.60;31.04
57574;BME280;68988;49.000;21.242;2023-04-08T07:50:31;98978.13;;;23.62;31.40
57574;BME280;68988;49.000;21.242;2023-04-08T07:52:57;98985.91;;;23.63;31.01
57574;BME280;68988;49.000;21.242;2023-04-08T07:55:22;98984.84;;;23.64;30.94
57574;BME280;68988;49.000;21.242;2023-04-08T07:57:48;98981.13;;;23.65;30.95
57574;BME280;68988;49.000;21.242;2023-04-08T08:00:13;98986.47;;;23.65;30.98
57574;BME280;68988;49.000;21.242;2023-04-08T08:02:44;98980.28;;;23.65;30.97
57574;BME280;68988;49.000;21.242;2023-04-08T08:05:10;98979.50;;;23.64;31.04
57574;BME280;68988;49.000;21.242;2023-04-08T08:07:36;98976.28;;;23.62;30.98
57574;BME280;68988;49.000;21.242;2023-04-08T08:10:01;98979.50;;;23.64;31.03
57574;BME280;68988;49.000;21.242;2023-04-08T08:12:26;98978.44;;;23.65;31.10
57574;BME280;68988;49.000;21.242;2023-04-08T08:14:52;98972.56;;;23.68;30.87
57574;BME280;68988;49.000;21.242;2023-04-08T08:17:19;98976.84;;;23.69;31.00
57574;BME280;68988;49.000;21.242;2023-04-08T08:19:45;98972.56;;;23.68;31.03
57574;BME280;68988;49.000;21.242;2023-04-08T08:22:10;98973.91;;;23.71;30.78
57574;BME280;68988;49.000;21.242;2023-04-08T08:24:36;98971.56;;;23.74;31.02
57574;BME280;68988;49.000;21.242;2023-04-08T08:27:02;98968.63;;;23.76;30.97
57574;BME280;68988;49.000;21.242;2023-04-08T08:29:29;98964.06;;;23.76;31.09
57574;BME280;68988;49.000;21.242;2023-04-08T08:31:54;98965.69;;;23.77;31.02
57574;BME280;68988;49.000;21.242;2023-04-08T08:34:20;98964.59;;;23.78;30.84
57574;BME280;68988;49.000;21.242;2023-04-08T08:36:45;98974.50;;;23.78;30.83
57574;BME280;68988;49.000;21.242;2023-04-08T08:39:11;98961.66;;;23.80;30.76
57574;BME280;68988;49.000;21.242;2023-04-08T08:41:36;98959.81;;;23.81;30.86
57574;BME280;68988;49.000;21.242;2023-04-08T08:44:04;98962.47;;;23.81;30.92
57574;BME280;68988;49.000;21.242;2023-04-08T08:46:30;98964.34;;;23.80;30.94
57574;BME280;68988;49.000;21.242;2023-04-08T08:48:56;98966.28;;;23.85;30.90
57574;BME280;68988;49.000;21.242;2023-04-08T08:51:22;98966.50;;;23.83;30.80
57574;BME280;68988;49.000;21.242;2023-04-08T08:53:48;98956.13;;;23.87;30.89
57574;BME280;68988;49.000;21.242;2023-04-08T08:56:13;98961.47;;;23.87;30.71
57574;BME280;68988;49.000;21.242;2023-04-08T08:58:39;98960.13;;;23.89;30.80
57574;BME280;68988;49.000;21.242;2023-04-08T09:01:36;98963.13;;;23.93;30.68
57574;BME280;68988;49.000;21.242;2023-04-08T09:06:43;98959.59;;;23.87;30.79
57574;BME280;68988;49.000;21.242;2023-04-08T09:09:09;98959.34;;;23.89;30.88
57574;BME280;68988;49.000;21.242;2023-04-08T09:11:36;98960.13;;;23.89;30.78
57574;BME280;68988;49.000;21.242;2023-04-08T09:14:02;98960.13;;;23.89;30.88
57574;BME280;68988;49.000;21.242;2023-04-08T09:16:29;98956.16;;;23.92;30.78
57574;BME280;68988;49.000;21.242;2023-04-08T09:19:07;98968.75;;;23.97;30.86
57574;BME280;68988;49.000;21.242;2023-04-08T09:21:33;98962.88;;;23.94;30.83
57574;BME280;68988;49.000;21.242;2023-04-08T09:23:59;98967.41;;;23.94;30.72
57574;BME280;68988;49.000;21.242;2023-04-08T09:26:25;98969.81;;;23.95;30.79
57574;BME280;68988;49.000;21.242;2023-04-08T09:31:24;98962.88;;;23.94;30.81
57574;BME280;68988;49.000;21.242;2023-04-08T09:33:53;98968.22;;;23.94;30.59
57574;BME280;68988;49.000;21.242;2023-04-08T09:36:19;98964.47;;;23.95;30.71
57574;BME280;68988;49.000;21.242;2023-04-08T09:38:45;98971.69;;;23.95;30.86
57574;BME280;68988;49.000;21.242;2023-04-08T09:41:15;98970.66;;;23.96;30.80
57574;BME280;68988;49.000;21.242;2023-04-08T09:43:48;98968.50;;;23.98;30.86
57574;BME280;68988;49.000;21.242;2023-04-08T09:46:17;98971.44;;;23.97;30.76
57574;BME280;68988;49.000;21.242;2023-04-08T09:49:08;98972.81;;;24.04;30.95
57574;BME280;68988;49.000;21.242;2023-04-08T09:51:40;98967.97;;;24.01;30.76
57574;BME280;68988;49.000;21.242;2023-04-08T09:54:13;98971.97;;;23.99;30.81
57574;BME280;68988;49.000;21.242;2023-04-08T09:56:53;98973.09;;;24.03;31.02
57574;BME280;68988;49.000;21.242;2023-04-08T09:59:24;98978.69;;;24.01;30.80
57574;BME280;68988;49.000;21.242;2023-04-08T10:01:53;98973.34;;;24.01;30.81
57574;BME280;68988;49.000;21.242;2023-04-08T10:04:23;98967.97;;;24.01;30.85
57574;BME280;68988;49.000;21.242;2023-04-08T10:06:56;98966.66;;;24.04;30.85
57574;BME280;68988;49.000;21.242;2023-04-08T10:09:26;98966.94;;;24.02;30.81
57574;BME280;68988;49.000;21.242;2023-04-08T10:11:54;98968.78;;;24.02;30.77
57574;BME280;68988;49.000;21.242;2023-04-08T10:14:19;98963.16;;;24.03;30.79
57574;BME280;68988;49.000;21.242;2023-04-08T10:16:46;98959.69;;;24.03;30.75
57574;BME280;68988;49.000;21.242;2023-04-08T10:19:38;98962.94;;;24.10;30.81
57574;BME280;68988;49.000;21.242;2023-04-08T10:27:43;98947.59;;;24.00;30.78
57574;BME280;68988;49.000;21.242;2023-04-08T10:32:59;98955.38;;;24.02;30.77
57574;BME280;68988;49.000;21.242;2023-04-08T10:35:28;98952.44;;;23.98;31.01
57574;BME280;68988;49.000;21.242;2023-04-08T10:37:54;98950.28;;;23.95;30.88
57574;BME280;68988;49.000;21.242;2023-04-08T10:40:20;98944.66;;;23.97;30.90
57574;BME280;68988;49.000;21.242;2023-04-08T10:42:45;98953.22;;;23.93;30.89
57574;BME280;68988;49.000;21.242;2023-04-08T10:45:15;98956.69;;;23.94;30.86
57574;BME280;68988;49.000;21.242;2023-04-08T10:47:42;98948.66;;;23.94;30.89
57574;BME280;68988;49.000;21.242;2023-04-08T10:50:15;98942.75;;;23.92;30.82
57574;BME280;68988;49.000;21.242;2023-04-08T10:52:47;98957.00;;;23.98;30.89
57574;BME280;68988;49.000;21.242;2023-04-08T10:55:13;98953.22;;;23.93;31.01
57574;BME280;68988;49.000;21.242;2023-04-08T10:57:38;98956.16;;;23.97;30.83
57574;BME280;68988;49.000;21.242;2023-04-08T11:00:09;98959.41;;;23.99;30.78
57574;BME280;68988;49.000;21.242;2023-04-08T11:02:37;98948.13;;;23.97;30.82
57574;BME280;68988;49.000;21.242;2023-04-08T11:05:02;98955.66;;;24.00;30.76
57574;BME280;68988;49.000;21.242;2023-04-08T11:07:28;98949.22;;;24.01;30.69
57574;BME280;68988;49.000;21.242;2023-04-08T11:09:54;98956.47;;;24.01;30.84
57574;BME280;68988;49.000;21.242;2023-04-08T11:12:20;98956.22;;;24.02;30.83
57574;BME280;68988;49.000;21.242;2023-04-08T11:14:46;98955.13;;;24.03;30.73
57574;BME280;68988;49.000;21.242;2023-04-08T11:17:14;98950.56;;;23.99;30.70
57574;BME280;68988;49.000;21.242;2023-04-08T11:19:40;98954.84;;;23.94;30.95
57574;BME280;68988;49.000;21.242;2023-04-08T11:22:06;98956.41;;;23.95;30.84
57574;BME280;68988;49.000;21.242;2023-04-08T11:24:34;98953.75;;;23.95;30.81
57574;BME280;68988;49.000;21.242;2023-04-08T11:27:02;98949.47;;;23.94;30.96
57574;BME280;68988;49.000;21.242;2023-04-08T11:29:28;98951.66;;;24.03;30.93
57574;BME280;68988;49.000;21.242;2023-04-08T11:31:55;98952.16;;;24.00;30.86
57574;BME280;68988;49.000;21.242;2023-04-08T11:34:24;98957.78;;;23.98;30.86
57574;BME280;68988;49.000;21.242;2023-04-08T11:36:50;98957.78;;;23.93;30.87
57574;BME280;68988;49.000;21.242;2023-04-08T11:39:16;98958.81;;;23.92;30.72
57574;BME280;68988;49.000;21.242;2023-04-08T11:41:41;98952.94;;;23.95;30.87
57574;BME280;68988;49.000;21.242;2023-04-08T11:44:07;98951.38;;;24.04;30.86
57574;BME280;68988;49.000;21.242;2023-04-08T11:46:33;98951.84;;;23.91;30.90
57574;BME280;68988;49.000;21.242;2023-04-08T11:49:06;98951.91;;;23.96;30.75
57574;BME280;68988;49.000;21.242;2023-04-08T11:51:53;98955.91;;;23.99;30.75
57574;BME280;68988;49.000;21.242;2023-04-08T11:54:31;98954.59;;;24.01;30.71
57574;BME280;68988;49.000;21.242;2023-04-08T11:56:57;98951.91;;;23.96;30.69
57574;BME280;68988;49.000;21.242;2023-04-08T11:59:24;98953.19;;;23.88;31.10
57574;BME280;68988;49.000;21.242;2023-04-08T12:01:50;98951.31;;;23.89;31.03
57574;BME280;68988;49.000;21.242;2023-04-08T12:04:16;98957.44;;;23.84;30.86
57574;BME280;68988;49.000;21.242;2023-04-08T12:06:41;98950.53;;;23.93;30.88
57574;BME280;68988;49.000;21.242;2023-04-08T12:09:12;98948.34;;;23.85;30.94
57574;BME280;68988;49.000;21.242;2023-04-08T12:11:37;98949.94;;;23.86;30.73
57574;BME280;68988;49.000;21.242;2023-04-08T12:14:03;98953.47;;;23.92;30.82
57574;BME280;68988;49.000;21.242;2023-04-08T12:16:28;98947.84;;;23.88;30.96
57574;BME280;68988;49.000;21.242;2023-04-08T12:18:54;98939.72;;;23.83;30.66
57574;BME280;68988;49.000;21.242;2023-04-08T12:21:19;98947.00;;;23.88;31.01
57574;BME280;68988;49.000;21.242;2023-04-08T12:23:45;98942.16;;;23.85;30.94
57574;BME280;68988;49.000;21.242;2023-04-08T12:26:10;98937.03;;;23.83;30.92
57574;BME280;68988;49.000;21.242;2023-04-08T12:28:37;98939.22;;;23.86;30.73
57574;BME280;68988;49.000;21.242;2023-04-08T12:31:03;98935.97;;;23.79;30.93
57574;BME280;68988;49.000;21.242;2023-04-08T12:33:28;98936.75;;;23.80;30.73
57574;BME280;68988;49.000;21.242;2023-04-08T12:35:54;98935.72;;;23.81;30.91
57574;BME280;68988;49.000;21.242;2023-04-08T12:38:20;98942.38;;;23.78;30.95
57574;BME280;68988;49.000;21.242;2023-04-08T12:40:45;98940.59;;;23.89;30.80
57574;BME280;68988;49.000;21.242;2023-04-08T12:43:10;98938.34;;;23.75;30.79
57574;BME280;68988;49.000;21.242;2023-04-08T12:45:36;98933.50;;;23.72;30.97
57574;BME280;68988;49.000;21.242;2023-04-08T12:48:02;98941.00;;;23.70;30.96
57574;BME280;68988;49.000;21.242;2023-04-08T12:50:27;98934.31;;;23.73;30.95
57574;BME280;68988;49.000;21.242;2023-04-08T12:52:53;98931.66;;;23.78;30.82
57574;BME280;68988;49.000;21.242;2023-04-08T12:55:18;98936.94;;;23.68;30.97
57574;BME280;68988;49.000;21.242;2023-04-08T12:57:43;98936.16;;;23.72;30.92
57574;BME280;68988;49.000;21.242;2023-04-08T13:00:09;98941.53;;;23.72;31.00
57574;BME280;68988;49.000;21.242;2023-04-08T13:02:35;98931.59;;;23.68;30.93
57574;BME280;68988;49.000;21.242;2023-04-08T13:05:01;98939.34;;;23.64;31.06
57574;BME280;68988;49.000;21.242;2023-04-08T13:07:26;98938.28;;;23.65;31.01
57574;BME280;68988;49.000;21.242;2023-04-08T13:09:51;98931.84;;;23.66;31.04